Time;durP1;ratioP1;P1;durP2;ratioP2;P2;SDS_P1;SDS_P2;PMS_P1;PMS_P2;Temp;Humidity;BMP_temperature;BMP_pressure;BME280_temperature;BME280_humidity;BME280_pressure;Samples;Min_cycle;Max_cycle;Signal;HPM_P1;HPM_P2
2022/02/07 00:02:01;;;;;;;2.90;1.10;;;;;;;3.52;83.08;96513.89;105791;1278;23395;-75
2022/02/07 00:04:33;;;;;;;2.80;1.30;;;;;;;3.53;82.97;96512.34;105888;1278;137580;-75
2022/02/07 00:07:00;;;;;;;2.10;1.00;;;;;;;3.54;82.94;96509.95;106028;1278;25252;-75
2022/02/07 00:09:30;;;;;;;2.30;1.10;;;;;;;3.55;82.96;96505.05;105863;1280;137115;-75
2022/02/07 00:11:56;;;;;;;2.50;1.00;;;;;;;3.56;82.96;96504.26;105966;1281;24230;-75
2022/02/07 00:14:22;;;;;;;2.00;1.00;;;;;;;3.55;82.90;96499.95;105680;1281;25129;-75
2022/02/07 00:16:49;;;;;;;3.70;1.10;;;;;;;3.55;82.79;96495.42;105866;1277;137481;-75
2022/02/07 00:19:22;;;;;;;2.20;0.90;;;;;;;3.56;82.60;96489.58;105910;1278;24258;-75
2022/02/07 00:21:50;;;;;;;2.10;0.90;;;;;;;3.57;82.44;96489.86;105917;1277;137807;-75
2022/02/07 00:24:16;;;;;;;1.90;0.80;;;;;;;3.59;82.41;96477.05;106140;1278;25305;-75
2022/02/07 00:26:43;;;;;;;1.70;0.60;;;;;;;3.60;82.45;96477.41;105809;1281;136918;-75
2022/02/07 00:29:09;;;;;;;1.60;0.80;;;;;;;3.60;82.38;96471.64;105831;1277;23989;-75
2022/02/07 00:31:35;;;;;;;1.20;0.60;;;;;;;3.58;82.18;96473.73;106017;1278;22629;-75
2022/02/07 00:34:02;;;;;;;2.20;0.90;;;;;;;3.59;82.17;96473.63;105806;1280;138308;-75
2022/02/07 00:36:43;;;;;;;2.00;0.50;;;;;;;3.61;82.24;96471.34;105898;1277;22630;-75
2022/02/07 00:39:17;;;;;;;1.50;0.70;;;;;;;3.62;82.19;96471.89;105755;1277;137107;-75
2022/02/07 00:41:48;;;;;;;0.80;0.40;;;;;;;3.62;82.48;96472.38;106217;1278;25389;-75
2022/02/07 00:44:18;;;;;;;3.20;0.50;;;;;;;3.62;82.83;96473.49;105996;1277;25254;-76
2022/02/07 00:46:51;;;;;;;1.40;0.40;;;;;;;3.61;82.76;96474.20;105750;1279;137451;-75
2022/02/07 00:49:18;;;;;;;0.50;0.50;;;;;;;3.62;82.77;96477.48;106107;1277;22563;-76
2022/02/07 00:51:44;;;;;;;1.30;0.60;;;;;;;3.63;82.80;96477.98;106068;1277;137078;-75
2022/02/07 00:54:11;;;;;;;0.50;0.40;;;;;;;3.64;82.98;96472.50;105973;1278;25435;-75
2022/02/07 00:56:38;;;;;;;1.20;0.50;;;;;;;3.63;83.44;96475.77;105969;1277;22612;-75
2022/02/07 00:59:04;;;;;;;0.40;0.40;;;;;;;3.60;83.77;96473.27;106060;1277;137599;-75
2022/02/07 01:01:32;;;;;;;0.60;0.50;;;;;;;3.59;83.79;96476.86;106107;1277;22567;-75
2022/02/07 01:03:59;;;;;;;0.80;0.70;;;;;;;3.59;84.08;96479.33;105970;1280;137327;-75
2022/02/07 01:06:31;;;;;;;1.00;0.70;;;;;;;3.58;84.19;96480.18;105799;1281;22632;-75
2022/02/07 01:09:14;;;;;;;2.10;0.70;;;;;;;3.56;84.38;96482.41;105843;1277;137095;-75
2022/02/07 01:55:20;;;;;;;1.70;0.90;;;;;;;3.39;86.29;96457.45;105806;1279;25446;-75
2022/02/07 01:57:53;;;;;;;1.90;0.60;;;;;;;3.40;86.31;96450.41;105673;1277;137576;-75
2022/02/07 02:00:35;;;;;;;0.90;0.60;;;;;;;3.41;86.53;96437.29;105851;1279;25388;-75
2022/02/07 02:03:02;;;;;;;1.70;0.80;;;;;;;3.43;86.58;96434.08;105949;1280;137701;-75
2022/02/07 02:05:46;;;;;;;1.20;0.80;;;;;;;3.44;86.58;96424.83;106331;1277;22551;-75
2022/02/07 02:08:19;;;;;;;1.70;0.90;;;;;;;3.44;86.72;96425.16;106348;1277;24980;-75
2022/02/07 02:10:51;;;;;;;0.80;0.60;;;;;;;3.45;86.77;96424.20;106079;1277;137734;-75
2022/02/07 02:13:25;;;;;;;1.50;0.60;;;;;;;3.46;86.65;96429.11;106195;1277;22574;-77
2022/02/07 02:16:00;;;;;;;1.00;0.80;;;;;;;3.47;86.77;96427.55;106074;1277;137337;-75
2022/02/07 02:45:43;;;;;;;1.60;0.70;;;;;;;3.24;86.82;96418.00;106365;1277;137561;-75
2022/02/07 02:48:25;;;;;;;1.80;0.70;;;;;;;3.19;86.69;96423.66;106172;1277;22659;-75
2022/02/07 02:50:55;;;;;;;0.60;0.60;;;;;;;3.16;86.63;96426.14;106185;1277;25260;-75
2022/02/07 02:53:23;;;;;;;1.20;0.80;;;;;;;3.13;86.67;96423.66;106168;1280;137045;-75
2022/02/07 02:55:51;;;;;;;1.50;0.90;;;;;;;3.08;86.68;96422.67;106019;1278;22617;-75
2022/02/07 02:58:21;;;;;;;1.00;0.90;;;;;;;3.03;86.75;96418.96;106049;1277;137399;-75
2022/02/07 03:00:52;;;;;;;2.30;1.00;;;;;;;2.98;86.83;96407.02;106011;1277;22573;-75
2022/02/07 03:03:26;;;;;;;1.60;1.10;;;;;;;2.95;86.88;96408.36;105682;1279;137958;-75
2022/02/07 03:05:52;;;;;;;1.60;1.00;;;;;;;2.93;86.97;96410.16;106013;1277;22610;-75
2022/02/07 03:08:19;;;;;;;1.80;1.50;;;;;;;2.92;86.97;96410.95;106357;1277;23946;-75
2022/02/07 03:11:10;;;;;;;4.70;2.10;;;;;;;2.91;87.07;96411.84;105843;1278;137497;-75
2022/02/07 03:16:38;;;;;;;3.60;1.80;;;;;;;2.82;86.95;96403.12;106065;1281;138184;-75
2022/02/07 03:19:08;;;;;;;2.40;1.50;;;;;;;2.80;86.91;96402.98;105916;1281;25379;-75
2022/02/07 03:21:34;;;;;;;2.70;1.30;;;;;;;2.78;87.08;96406.27;105729;1281;137588;-75
2022/02/07 03:24:01;;;;;;;2.20;1.20;;;;;;;2.75;87.23;96420.96;106080;1279;22745;-75
2022/02/07 03:26:30;;;;;;;1.10;1.00;;;;;;;2.74;87.30;96432.02;106311;1277;23480;-75
2022/02/07 03:28:56;;;;;;;1.20;1.00;;;;;;;2.72;87.33;96423.66;105860;1280;138091;-77
2022/02/07 03:31:23;;;;;;;1.30;1.20;;;;;;;2.72;87.40;96424.52;105785;1280;25182;-75
2022/02/07 03:33:50;;;;;;;1.40;1.00;;;;;;;2.71;87.48;96423.02;105953;1277;137511;-75
2022/02/07 03:36:17;;;;;;;1.50;1.40;;;;;;;2.71;87.53;96419.41;105922;1278;22624;-75
2022/02/07 03:38:45;;;;;;;1.40;1.30;;;;;;;2.69;87.54;96407.91;105740;1277;25426;-75
2022/02/07 03:41:15;;;;;;;2.60;1.40;;;;;;;2.70;87.75;96402.02;105956;1278;137726;-75
2022/02/07 03:43:42;;;;;;;2.10;1.60;;;;;;;2.73;87.78;96393.85;105833;1277;23001;-75
2022/02/07 03:46:09;;;;;;;2.60;1.60;;;;;;;2.75;87.83;96391.94;105782;1279;137389;-75
2022/02/07 03:48:35;;;;;;;2.60;1.60;;;;;;;2.76;87.82;96396.79;105984;1277;22577;-76
2022/02/07 03:51:01;;;;;;;4.20;2.30;;;;;;;2.76;87.83;96406.04;105830;1277;138593;-75
2022/02/07 03:53:28;;;;;;;2.50;1.70;;;;;;;2.79;87.84;96408.67;105716;1277;22562;-75
2022/02/07 03:56:03;;;;;;;2.20;1.30;;;;;;;2.81;87.83;96400.96;106114;1277;25258;-75
2022/02/07 03:58:31;;;;;;;3.50;1.20;;;;;;;2.82;87.74;96393.34;105736;1277;137481;-76
2022/02/07 04:00:58;;;;;;;3.10;1.70;;;;;;;2.81;87.73;96387.35;105948;1277;25430;-75
2022/02/07 04:03:36;;;;;;;2.60;1.80;;;;;;;2.80;87.84;96383.64;105735;1279;137833;-75
2022/02/07 04:06:06;;;;;;;3.20;1.70;;;;;;;2.79;87.89;96378.73;105981;1277;25357;-75
2022/02/07 04:08:37;;;;;;;4.00;1.80;;;;;;;2.81;88.07;96384.72;106040;1277;22770;-75
2022/02/07 04:13:41;;;;;;;2.10;1.70;;;;;;;2.85;88.16;96393.70;105996;1278;25348;-75
2022/02/07 04:16:10;;;;;;;4.30;1.80;;;;;;;2.87;88.23;96400.65;105848;1277;137907;-75
2022/02/07 04:21:29;;;;;;;2.30;1.60;;;;;;;2.90;88.22;96413.92;105892;1277;140415;-76
2022/02/07 04:23:56;;;;;;;;;;;;;;;2.92;88.24;96412.35;106162;1277;22565;-76
2022/02/07 04:26:28;;;;;;;2.30;1.60;;;;;;;2.91;87.94;96412.75;105931;1277;25223;-76
2022/02/07 04:28:54;;;;;;;3.80;1.80;;;;;;;2.89;88.03;96429.34;105766;1280;137772;-76
2022/02/07 04:31:21;;;;;;;2.50;1.70;;;;;;;2.87;88.18;96436.47;105945;1277;25369;-75
2022/02/07 04:33:47;;;;;;;2.70;2.10;;;;;;;2.87;88.14;96440.05;105984;1279;138695;-75
2022/02/07 04:36:16;;;;;;;4.60;2.10;;;;;;;2.87;88.20;96438.35;105898;1277;25434;-75
2022/02/07 04:38:43;;;;;;;4.30;2.50;;;;;;;2.88;88.42;96434.91;105737;1278;22567;-75
2022/02/07 04:41:12;;;;;;;2.80;2.30;;;;;;;2.88;88.34;96438.05;105816;1281;137803;-75
2022/02/07 04:43:47;;;;;;;4.30;2.20;;;;;;;2.89;88.38;96438.76;106197;1277;23265;-75
2022/02/07 04:49:13;;;;;;;5.70;3.20;;;;;;;2.91;88.25;96429.48;105737;1280;22605;-75
2022/02/07 04:54:33;;;;;;;4.70;3.30;;;;;;;2.90;88.39;96435.27;106093;1277;24306;-75
2022/02/07 05:00:37;;;;;;;5.00;3.70;;;;;;;2.90;88.19;96451.08;105988;1278;22723;-75
2022/02/07 05:13:51;;;;;;;6.80;3.60;;;;;;;2.94;88.20;96460.06;106350;1277;22605;-75
2022/02/07 05:16:30;;;;;;;7.40;4.30;;;;;;;2.96;88.38;96464.73;105913;1277;137581;-75
2022/02/07 05:19:19;;;;;;;6.50;3.50;;;;;;;2.97;88.34;96471.02;105985;1277;26299;-75
2022/02/07 05:21:54;;;;;;;4.20;2.90;;;;;;;2.97;88.38;96470.97;106131;1277;137561;-75
2022/02/07 05:24:37;;;;;;;4.70;2.80;;;;;;;2.97;88.35;96474.74;106118;1277;23380;-75
2022/02/07 05:27:25;;;;;;;4.30;2.90;;;;;;;2.98;88.32;96470.63;106068;1278;137878;-77
2022/02/07 05:30:11;;;;;;;5.10;3.60;;;;;;;3.00;88.38;96468.80;105883;1277;25445;-75
2022/02/07 05:32:52;;;;;;;3.30;2.60;;;;;;;3.00;88.47;96477.16;106162;1278;23655;-75
2022/02/07 05:35:42;;;;;;;4.00;3.10;;;;;;;3.01;88.63;96479.37;106202;1277;137174;-75
2022/02/07 05:38:27;;;;;;;4.60;3.20;;;;;;;3.03;88.75;96488.02;106153;1277;25329;-75
2022/02/07 05:41:13;;;;;;;4.30;3.30;;;;;;;3.06;88.85;96498.52;106337;1277;137921;-75
2022/02/07 05:44:13;;;;;;;5.20;3.10;;;;;;;3.09;88.81;96504.77;106067;1277;22890;-75
2022/02/07 05:46:58;;;;;;;4.80;3.00;;;;;;;3.11;89.03;96512.39;105823;1280;137587;-75
2022/02/07 05:49:43;;;;;;;3.30;1.90;;;;;;;3.11;89.07;96513.46;105731;1277;26825;-75
2022/02/07 05:52:22;;;;;;;7.80;2.30;;;;;;;3.12;89.16;96519.60;105878;1277;137837;-75
2022/02/07 05:54:58;;;;;;;2.70;1.90;;;;;;;3.14;89.34;96521.32;105804;1279;22548;-75
2022/02/07 05:57:24;;;;;;;3.20;2.00;;;;;;;3.17;89.30;96527.65;105852;1277;137851;-75
2022/02/07 06:00:02;;;;;;;3.00;1.80;;;;;;;3.20;89.42;96522.38;105945;1277;24214;-75
2022/02/07 06:02:45;;;;;;;3.00;1.90;;;;;;;3.21;89.48;96524.33;106034;1277;24231;-75
2022/02/07 06:05:17;;;;;;;3.60;2.50;;;;;;;3.23;89.46;96524.29;105917;1277;137501;-75
2022/02/07 06:07:44;;;;;;;2.40;2.00;;;;;;;3.23;89.46;96528.67;106045;1277;25317;-76
2022/02/07 06:10:11;;;;;;;2.10;1.90;;;;;;;3.26;89.62;96530.47;105975;1277;137687;-76
2022/02/07 06:12:40;;;;;;;5.70;1.80;;;;;;;3.27;89.26;96535.86;105909;1279;22560;-76
2022/02/07 06:15:08;;;;;;;2.80;1.60;;;;;;;3.28;89.35;96536.70;105965;1278;23180;-76
2022/02/07 06:17:35;;;;;;;2.70;2.00;;;;;;;3.29;89.55;96546.40;106222;1277;137955;-76
2022/02/07 06:20:04;;;;;;;4.90;2.70;;;;;;;3.29;89.36;96551.98;106136;1277;25639;-75
2022/02/07 06:22:33;;;;;;;5.00;2.50;;;;;;;3.28;89.46;96559.17;105810;1279;137263;-75
2022/02/07 06:25:05;;;;;;;3.60;2.50;;;;;;;3.28;89.44;96561.92;105998;1278;23402;-77
2022/02/07 06:27:31;;;;;;;6.00;2.40;;;;;;;3.28;89.45;96575.05;106009;1280;138556;-74
2022/02/07 06:29:59;;;;;;;4.20;2.20;;;;;;;3.29;89.48;96582.86;105884;1277;22618;-74
2022/02/07 06:32:26;;;;;;;5.00;2.20;;;;;;;3.28;89.61;96622.17;105967;1277;22542;-75
2022/02/07 06:34:54;;;;;;;2.80;1.50;;;;;;;3.18;87.80;96647.89;105940;1280;137747;-74
2022/02/07 06:37:21;;;;;;;1.60;0.80;;;;;;;2.95;86.84;96652.46;106212;1280;25306;-75
2022/02/07 06:39:47;;;;;;;1.70;0.80;;;;;;;2.73;86.34;96657.66;106363;1279;138079;-74
2022/02/07 06:42:15;;;;;;;3.50;0.80;;;;;;;2.55;86.41;96674.27;105862;1277;22540;-74
2022/02/07 06:44:42;;;;;;;0.90;0.60;;;;;;;2.33;85.80;96689.08;106095;1277;22599;-73
2022/02/07 06:47:09;;;;;;;2.00;0.40;;;;;;;2.10;86.05;96695.98;105672;1277;137476;-75
2022/02/07 06:49:36;;;;;;;2.00;0.50;;;;;;;1.89;86.62;96706.59;105980;1277;25341;-75
2022/02/07 06:52:03;;;;;;;0.60;0.50;;;;;;;1.75;87.39;96712.70;106029;1277;137852;-75
2022/02/07 06:54:45;;;;;;;1.00;0.60;;;;;;;1.61;87.75;96713.34;105986;1279;23520;-74
2022/02/07 06:57:13;;;;;;;0.90;0.60;;;;;;;1.55;87.80;96720.21;105980;1278;22658;-75
2022/02/07 06:59:42;;;;;;;4.90;1.10;;;;;;;1.50;87.89;96734.96;105874;1280;137718;-75
2022/02/07 07:02:13;;;;;;;2.60;1.00;;;;;;;1.49;88.05;96742.33;106064;1277;25433;-75
2022/02/07 07:04:39;;;;;;;3.10;1.20;;;;;;;1.46;87.91;96748.77;106065;1280;137167;-75
2022/02/07 07:07:07;;;;;;;4.00;0.90;;;;;;;1.45;88.00;96750.55;106036;1280;22892;-75
2022/02/07 07:09:35;;;;;;;1.80;0.90;;;;;;;1.45;88.02;96760.37;106546;1277;138608;-75
2022/02/07 07:12:04;;;;;;;3.70;0.90;;;;;;;1.46;88.25;96776.00;106325;1279;25341;-75
2022/02/07 07:14:47;;;;;;;2.40;1.00;;;;;;;1.47;88.13;96787.63;105806;1277;22651;-74
2022/02/07 07:17:15;;;;;;;1.10;0.50;;;;;;;1.47;88.43;96789.23;105831;1278;137419;-74
2022/02/07 07:19:47;;;;;;;3.00;1.00;;;;;;;1.46;88.51;96789.36;105916;1277;23351;-74
2022/02/07 07:22:14;;;;;;;3.90;1.20;;;;;;;1.46;88.42;96802.45;106630;1277;137684;-74
2022/02/07 07:24:45;;;;;;;1.90;1.00;;;;;;;1.47;88.52;96812.09;106166;1277;24020;-74
2022/02/07 07:27:20;;;;;;;5.60;1.80;;;;;;;1.48;88.51;96816.09;106161;1279;22551;-75
2022/02/07 07:29:47;;;;;;;2.60;1.60;;;;;;;1.50;88.64;96824.18;105933;1277;137690;-75
2022/02/07 07:32:20;;;;;;;3.70;1.70;;;;;;;1.50;88.71;96832.96;106314;1277;24438;-74
2022/02/07 07:34:47;;;;;;;3.80;1.70;;;;;;;1.49;88.56;96835.30;106019;1280;137505;-75
2022/02/07 07:37:18;;;;;;;3.00;1.60;;;;;;;1.50;88.67;96840.41;105912;1277;22547;-75
2022/02/07 07:39:44;;;;;;;2.40;1.70;;;;;;;1.49;88.42;96838.20;105929;1276;138395;-75
2022/02/07 07:42:12;;;;;;;6.20;1.70;;;;;;;1.49;88.49;96842.23;106340;1276;26586;-74
2022/02/07 07:45:09;;;;;;;3.40;2.10;;;;;;;1.51;88.63;96841.25;106312;1276;25400;-75
2022/02/07 07:48:12;;;;;;;2.40;1.60;;;;;;;1.52;88.57;96846.80;105983;1277;136773;-76
2022/02/07 07:51:27;;;;;;;7.00;2.60;;;;;;;1.54;88.71;96851.05;106072;1277;22579;-74
2022/02/07 08:02:45;;;;;;;5.20;4.00;;;;;;;1.63;89.03;96865.08;106086;1277;24529;-75
2022/02/07 08:05:24;;;;;;;5.50;4.30;;;;;;;1.63;89.23;96867.44;106294;1280;137887;-75
2022/02/07 08:07:56;;;;;;;6.10;4.50;;;;;;;1.63;89.16;96870.36;106331;1277;23274;-75
2022/02/07 08:10:44;;;;;;;6.50;4.10;;;;;;;1.66;89.08;96878.36;106094;1277;138614;-75
2022/02/07 08:13:16;;;;;;;7.10;4.00;;;;;;;1.67;88.96;96886.56;106654;1277;24063;-75
2022/02/07 08:15:47;;;;;;;3.60;2.50;;;;;;;1.68;88.63;96891.77;106100;1279;137314;-75
2022/02/07 08:18:13;;;;;;;4.10;3.30;;;;;;;1.67;88.53;96907.75;105889;1278;22616;-75
2022/02/07 08:20:40;;;;;;;6.30;3.80;;;;;;;1.67;88.44;96917.35;106243;1277;25368;-75
2022/02/07 08:23:09;;;;;;;5.60;4.10;;;;;;;1.67;88.50;96920.05;105975;1277;138565;-75
2022/02/07 08:25:35;;;;;;;4.60;3.00;;;;;;;1.67;88.62;96918.27;105909;1279;26604;-76
2022/02/07 08:28:02;;;;;;;8.50;5.70;;;;;;;1.68;88.61;96924.76;105992;1279;137318;-75
2022/02/07 08:30:28;;;;;;;5.80;5.00;;;;;;;1.68;88.81;96926.98;106128;1277;24313;-75
2022/02/07 08:32:58;;;;;;;9.60;5.80;;;;;;;1.67;88.50;96931.36;106325;1277;23977;-75
2022/02/07 08:35:24;;;;;;;8.20;4.10;;;;;;;1.67;88.50;96943.17;105950;1277;137840;-74
2022/02/07 08:37:51;;;;;;;4.80;2.90;;;;;;;1.70;88.11;96947.89;105905;1277;25401;-72
2022/02/07 08:40:19;;;;;;;6.60;3.30;;;;;;;1.75;87.53;96951.49;105751;1277;137318;-76
2022/02/07 08:42:46;;;;;;;3.40;2.00;;;;;;;1.82;87.14;96959.29;106177;1280;25333;-74
2022/02/07 08:45:14;;;;;;;4.00;2.20;;;;;;;1.87;86.50;96955.52;105945;1280;137657;-75
2022/02/07 08:47:42;;;;;;;3.90;2.00;;;;;;;1.95;86.26;96963.09;106153;1277;24372;-75
2022/02/07 08:50:12;;;;;;;5.00;2.20;;;;;;;2.07;86.30;96963.80;106588;1277;24289;-76
2022/02/07 08:52:46;;;;;;;3.60;2.20;;;;;;;2.21;85.66;96967.52;105892;1277;137505;-74
2022/02/07 08:58:01;;;;;;;5.00;1.90;;;;;;;2.33;84.53;96972.85;106733;1276;137933;-75
2022/02/07 09:11:12;;;;;;;4.20;2.50;;;;;;;2.34;83.50;96990.11;105624;1278;137462;-74
2022/02/07 09:13:43;;;;;;;4.50;2.50;;;;;;;2.30;83.24;96996.78;106478;1277;22559;-75
2022/02/07 09:18:46;;;;;;;4.80;2.20;;;;;;;2.18;83.58;97019.71;105885;1280;24269;-77
2022/02/07 09:21:14;;;;;;;2.40;1.60;;;;;;;2.08;83.75;97035.63;106234;1277;138296;-75
2022/02/07 09:23:44;;;;;;;3.50;1.80;;;;;;;2.02;84.69;97036.05;105956;1277;23180;-75
2022/02/07 09:26:12;;;;;;;3.60;1.80;;;;;;;2.02;84.32;97038.49;106077;1277;22569;-75
2022/02/07 09:28:38;;;;;;;4.10;1.50;;;;;;;2.04;84.02;97050.38;105771;1277;138676;-77
2022/02/07 09:31:05;;;;;;;2.90;1.50;;;;;;;2.11;84.44;97054.70;106034;1277;22660;-75
2022/02/07 09:33:31;;;;;;;2.60;1.20;;;;;;;2.16;83.56;97061.46;106117;1277;137637;-75
2022/02/07 09:35:57;;;;;;;2.60;1.40;;;;;;;2.18;83.10;97077.55;105823;1277;22556;-75
2022/02/07 09:38:24;;;;;;;2.30;1.30;;;;;;;2.17;82.86;97077.59;105911;1277;22555;-75
2022/02/07 09:40:53;;;;;;;2.30;1.00;;;;;;;2.19;82.92;97079.06;106300;1277;137348;-77
2022/02/07 09:43:30;;;;;;;3.90;1.50;;;;;;;2.21;82.57;97081.15;106290;1277;25250;-75
2022/02/07 09:46:07;;;;;;;2.60;1.40;;;;;;;2.23;82.06;97085.70;105782;1277;137079;-75
2022/02/07 09:48:35;;;;;;;5.10;1.90;;;;;;;2.28;82.79;97088.21;106093;1277;23325;-75
2022/02/07 09:51:01;;;;;;;4.50;1.50;;;;;;;2.37;83.37;97093.85;106175;1277;23468;-75
2022/02/07 09:53:28;;;;;;;6.90;2.10;;;;;;;2.44;83.09;97092.75;105772;1277;225944;-74
2022/02/07 09:55:55;;;;;;;3.90;1.70;;;;;;;2.46;82.82;97096.84;105747;1277;24281;-74
2022/02/07 09:58:21;;;;;;;3.30;1.90;;;;;;;2.46;82.77;97095.67;106278;1277;136934;-75
2022/02/07 10:00:48;;;;;;;3.40;2.10;;;;;;;2.44;82.99;97101.52;106179;1277;25325;-75
2022/02/07 10:03:30;;;;;;;4.20;1.80;;;;;;;2.41;82.71;97115.03;108301;1277;137676;-75
2022/02/07 10:06:04;;;;;;;2.70;1.90;;;;;;;2.39;83.01;97116.46;106540;1279;25408;-77
2022/02/07 10:19:06;;;;;;;4.00;1.70;;;;;;;2.10;84.02;97143.50;105989;1277;25106;-75
2022/02/07 10:47:07;;;;;;;5.30;2.10;;;;;;;1.73;86.33;97176.28;106720;1276;137233;-76
2022/02/07 10:49:35;;;;;;;3.30;1.60;;;;;;;1.79;86.07;97181.19;106200;1276;23388;-74
2022/02/07 10:52:02;;;;;;;3.30;1.50;;;;;;;1.85;85.52;97184.84;106658;1277;137887;-74
2022/02/07 10:54:29;;;;;;;5.60;2.20;;;;;;;1.89;85.27;97189.81;106009;1279;24382;-74
2022/02/07 10:56:56;;;;;;;5.80;2.30;;;;;;;1.95;85.37;97197.77;106096;1277;25331;-74
2022/02/07 10:59:24;;;;;;;2.80;1.90;;;;;;;1.99;85.22;97198.92;106164;1277;137440;-74
2022/02/07 11:04:43;;;;;;;7.50;2.20;;;;;;;2.00;84.91;97207.54;106451;1276;137705;-74
2022/02/07 11:07:11;;;;;;;6.00;3.00;;;;;;;1.99;84.72;97215.27;106249;1276;24281;-75
2022/02/07 11:14:56;;;;;;;3.70;1.80;;;;;;;2.02;84.08;97231.77;106173;1277;25335;-75
2022/02/07 11:17:36;;;;;;;4.40;1.60;;;;;;;1.99;83.86;97232.95;106015;1277;137128;-76
2022/02/07 11:20:41;;;;;;;4.50;1.50;;;;;;;1.96;83.57;97239.14;106267;1277;22608;-75
2022/02/07 11:26:14;;;;;;;2.70;1.50;;;;;;;1.89;83.28;97255.11;106455;1277;25022;-75
2022/02/07 11:28:43;;;;;;;;;;;;;;;1.84;83.27;97261.94;106334;1277;137817;-75
2022/02/07 11:31:10;;;;;;;2.10;1.30;;;;;;;1.81;83.58;97268.05;106241;1277;22996;-75
2022/02/07 11:36:38;;;;;;;5.50;3.20;;;;;;;1.78;82.91;97276.04;106752;1275;22571;-75
2022/02/07 11:39:17;;;;;;;4.10;1.60;;;;;;;1.75;82.70;97281.35;106387;1276;24259;-74
2022/02/07 11:42:12;;;;;;;4.20;2.00;;;;;;;1.73;83.00;97290.70;106719;1276;137265;-76
2022/02/07 11:44:39;;;;;;;5.50;2.90;;;;;;;1.75;82.80;97294.98;107176;1277;30185;-74
2022/02/07 11:47:24;;;;;;;3.90;1.80;;;;;;;1.77;82.64;97302.31;107410;1277;137723;-74
2022/02/07 11:49:56;;;;;;;3.80;2.10;;;;;;;1.80;81.87;97309.94;107205;1277;22706;-74
2022/02/07 11:52:27;;;;;;;3.70;2.10;;;;;;;1.80;81.94;97313.27;106481;1277;138009;-74
2022/02/07 11:55:01;;;;;;;6.10;2.50;;;;;;;1.81;82.07;97317.96;106647;1277;30354;-76
2022/02/07 11:57:37;;;;;;;6.20;1.90;;;;;;;1.88;82.14;97316.81;106317;1278;22707;-74
2022/02/07 12:00:28;;;;;;;2.70;1.50;;;;;;;1.93;81.50;97312.68;106381;1279;136957;-73
2022/02/07 12:03:12;;;;;;;3.90;1.90;;;;;;;1.96;81.37;97324.02;106386;1278;22711;-74
2022/02/07 12:05:47;;;;;;;;;;;;;;;1.97;81.33;97333.14;106265;1279;137692;-74
2022/02/07 12:08:16;;;;;;;4.30;1.80;;;;;;;1.96;80.85;97333.11;106838;1277;24376;-75
2022/02/07 12:10:49;;;;;;;4.60;1.60;;;;;;;1.95;80.92;97343.52;106579;1277;137237;-75
2022/02/07 12:13:40;;;;;;;1.70;1.50;;;;;;;1.92;81.26;97348.55;107099;1277;23194;-75
2022/02/07 12:16:11;;;;;;;3.30;1.80;;;;;;;1.89;81.19;97350.08;106590;1280;137523;-75
2022/02/07 12:18:38;;;;;;;4.70;2.00;;;;;;;1.91;81.38;97355.81;106432;1277;22573;-74
2022/02/07 12:21:27;;;;;;;2.50;1.50;;;;;;;1.95;81.31;97358.77;106476;1277;23414;-75
2022/02/07 12:24:01;;;;;;;1.70;1.20;;;;;;;1.99;81.15;97368.78;106390;1277;137338;-75
2022/02/07 12:26:29;;;;;;;1.90;1.40;;;;;;;2.00;79.90;97373.44;106474;1277;22576;-75
2022/02/07 12:29:25;;;;;;;3.40;1.50;;;;;;;2.01;79.90;97377.22;106184;1277;138293;-74
2022/02/07 12:31:54;;;;;;;5.00;1.80;;;;;;;2.04;79.59;97376.63;106476;1277;23931;-74
2022/02/07 12:34:24;;;;;;;4.30;1.90;;;;;;;2.08;79.94;97382.89;105810;1277;137361;-74
2022/02/07 12:36:52;;;;;;;3.80;1.80;;;;;;;2.14;79.96;97379.46;106289;1280;26604;-74
2022/02/07 12:39:19;;;;;;;3.60;1.80;;;;;;;2.23;80.43;97386.11;106071;1277;22557;-74
2022/02/07 12:41:46;;;;;;;4.10;1.80;;;;;;;2.36;80.44;97385.27;106173;1277;137347;-74
2022/02/07 12:44:22;;;;;;;5.20;1.90;;;;;;;2.48;79.98;97391.59;106238;1277;25485;-74
2022/02/07 12:47:03;;;;;;;3.80;1.80;;;;;;;2.56;79.06;97387.80;106085;1276;137281;-74
2022/02/07 12:49:38;;;;;;;3.60;1.80;;;;;;;2.60;78.67;97393.31;106056;1279;22554;-74
2022/02/07 12:52:05;;;;;;;4.40;1.60;;;;;;;2.63;78.57;97389.56;105817;1279;138310;-74
2022/02/07 12:54:37;;;;;;;6.20;2.10;;;;;;;2.66;78.51;97393.45;106033;1277;24481;-74
2022/02/07 12:57:04;;;;;;;2.70;1.20;;;;;;;2.66;78.06;97402.84;106243;1277;23961;-74
2022/02/07 12:59:32;;;;;;;3.60;1.40;;;;;;;2.64;77.45;97411.88;105752;1280;137229;-74
2022/02/07 13:02:12;;;;;;;4.10;1.50;;;;;;;2.57;77.56;97406.56;105985;1280;24278;-75
2022/02/07 13:04:42;;;;;;;3.90;1.80;;;;;;;2.55;77.25;97420.69;105896;1279;138159;-75
2022/02/07 13:07:10;;;;;;;2.20;1.40;;;;;;;2.54;77.34;97434.29;106107;1277;22553;-77
2022/02/07 13:09:50;;;;;;;4.20;1.50;;;;;;;2.53;76.66;97433.83;106226;1277;22524;-76
2022/02/07 13:12:25;;;;;;;3.80;1.10;;;;;;;2.50;76.16;97437.88;105669;1280;137806;-76
2022/02/07 13:14:52;;;;;;;2.40;1.00;;;;;;;2.44;75.87;97441.59;106203;1277;22542;-77
2022/02/07 13:17:22;;;;;;;3.50;1.30;;;;;;;2.38;75.66;97450.16;106073;1279;137450;-76
2022/02/07 13:19:50;;;;;;;4.10;1.50;;;;;;;2.33;76.18;97454.41;105824;1279;22567;-75
2022/02/07 13:22:31;;;;;;;5.20;1.90;;;;;;;2.29;75.30;97471.24;105802;1279;137602;-75
2022/02/07 13:25:00;;;;;;;3.50;1.80;;;;;;;2.23;75.19;97469.60;105703;1277;23928;-76
2022/02/07 13:27:26;;;;;;;2.80;1.50;;;;;;;2.19;75.62;97480.27;105855;1277;25491;-75
2022/02/07 13:29:57;;;;;;;5.30;2.40;;;;;;;2.15;76.00;97492.78;105792;1277;137387;-75
2022/02/07 13:32:26;;;;;;;7.80;2.50;;;;;;;2.12;75.76;97496.60;105928;1277;22833;-74
2022/02/07 13:35:11;;;;;;;4.70;1.70;;;;;;;2.08;75.81;97506.73;105929;1278;136974;-74
2022/02/07 13:37:40;;;;;;;5.20;2.20;;;;;;;2.07;75.70;97512.45;106077;1279;25248;-75
2022/02/07 13:40:24;;;;;;;5.80;2.30;;;;;;;2.06;75.89;97518.19;106035;1276;137614;-74
2022/02/07 13:42:53;;;;;;;5.00;2.40;;;;;;;2.05;75.13;97524.89;106217;1279;22577;-72
2022/02/07 13:45:25;;;;;;;7.40;2.90;;;;;;;2.05;75.27;97523.33;105993;1278;25530;-74
2022/02/07 13:47:57;;;;;;;7.10;2.30;;;;;;;2.05;75.86;97529.39;105950;1278;137822;-74
2022/02/07 13:50:29;;;;;;;8.70;2.40;;;;;;;2.05;75.85;97535.30;105981;1279;24247;-74
2022/02/07 13:52:58;;;;;;;5.30;2.10;;;;;;;2.07;75.97;97535.91;105731;1279;139153;-74
2022/02/07 13:55:41;;;;;;;4.60;2.20;;;;;;;2.08;75.39;97545.66;105841;1280;22706;-74
2022/02/07 13:58:11;;;;;;;6.30;2.10;;;;;;;2.09;76.00;97537.02;105768;1279;137148;-74
2022/02/07 14:00:39;;;;;;;7.40;3.60;;;;;;;2.12;75.80;97537.05;106178;1279;24239;-74
2022/02/07 14:03:11;;;;;;;5.00;1.80;;;;;;;2.14;75.56;97543.11;106015;1279;22557;-74
2022/02/07 14:06:05;;;;;;;8.80;2.10;;;;;;;2.16;74.44;97552.08;105916;1280;138000;-74
2022/02/07 14:08:54;;;;;;;6.70;2.30;;;;;;;2.15;73.68;97552.04;105867;1280;22715;-75
2022/02/07 14:11:26;;;;;;;6.00;2.20;;;;;;;2.14;74.17;97561.98;105680;1277;137011;-75
2022/02/07 14:13:56;;;;;;;6.10;2.30;;;;;;;2.13;74.08;97565.34;106119;1277;24280;-75
2022/02/07 14:16:26;;;;;;;4.40;2.00;;;;;;;2.14;74.38;97574.44;105937;1277;137198;-74
2022/02/07 14:18:54;;;;;;;8.70;2.90;;;;;;;2.13;73.89;97588.70;106335;1277;22718;-76
2022/02/07 14:21:24;;;;;;;8.60;2.70;;;;;;;2.12;73.95;97587.91;105862;1280;23971;-74
2022/02/07 14:23:53;;;;;;;6.20;2.20;;;;;;;2.14;73.94;97597.31;106015;1277;139439;-76
2022/02/07 14:26:21;;;;;;;4.20;2.30;;;;;;;2.12;73.33;97601.55;106242;1277;25330;-74
2022/02/07 14:28:51;;;;;;;7.20;2.50;;;;;;;2.09;73.77;97601.92;106183;1276;137363;-74
2022/02/07 14:31:18;;;;;;;10.50;3.20;;;;;;;2.06;74.42;97614.98;106288;1276;23341;-74
2022/02/07 14:33:46;;;;;;;8.50;2.70;;;;;;;2.03;73.81;97619.50;105904;1279;22808;-74
2022/02/07 14:36:29;;;;;;;6.80;2.30;;;;;;;2.02;74.04;97629.61;105934;1279;137415;-74
2022/02/07 14:38:56;;;;;;;8.30;2.50;;;;;;;2.01;74.68;97637.77;106028;1277;22574;-74
2022/02/07 14:41:23;;;;;;;5.00;2.10;;;;;;;2.01;74.48;97640.23;106036;1280;137333;-74
2022/02/07 14:43:53;;;;;;;6.10;2.10;;;;;;;2.02;74.50;97652.21;106084;1277;24402;-76
2022/02/07 14:46:23;;;;;;;7.60;2.40;;;;;;;2.04;75.04;97654.91;105935;1278;138824;-76
2022/02/07 14:48:50;;;;;;;7.30;2.30;;;;;;;2.05;74.57;97653.05;105946;1278;25262;-76